Wind From: 10-12-2017 19:04 Until: 11-12-2017 16:00 warning for: Wind Level: Orange info button

Power and phone distribution networks may be disrupted for relatively long periods., Roofs and chimneys can be damaged. , Tree branches may break. , Vehicles can be deported. , Traffic may be disrupted, particularly on secondary roads in forest areas. Limit your trips. , Limit your speed in highway driving, especially if you drive a vehicle or hitch sensitive to wind. , Do not go for walks in forests or along the coast., In town, be vigilant against possible falling objects., Do not work on roofs and do not touch any electrical line fallen on the ground., Store or secure sensitive objects to wind or likely to be damaged., Always install power generators outside buildings. 


Meteo18 Weather Cam more information Meteo18 Weather Cam


Thunder radar more information blitzortung!


Rain radar more information rain snow radar


Visit our other weather sites:

Template documentation
and downloads

And another site



Weather Underground History page Text

Daily Summary for March 11, 2016 Units:  Metric    English   Both
« Previous Day
Next Day »
Daily Weekly Monthly Yearly Custom
  High: Low: Average:
Temperature: 10.7 °C 4.1 °C 6.9 °C
Dew Point: 4.3 °C 1.2 °C 2.8 °C
Humidity: 92 % 58 % 76 %
Wind Speed: 14.5 km/h 0.0 km/h 3.3 km/h
Wind Gust: 24.1 km/h - -
Wind:- - ENE
Pressure: 1024.9 hPa 1021.2 hPa -
Precipitation: 0.0 mm    
Historical Graphs
 
 
Tabular Data for March 11, 2016
Time Temperature Dew Point Pressure Wind Wind Speed Wind Gust Humidity Rainfall Rate (Hourly)
00:02 5.6 °C 3.6 °C 1021.2 hPa NE 4.8 km/h 9.7 km/h 87 % 0.0 mm
00:07 5.6 °C 3.8 °C 1021.2 hPa NE 1.6 km/h 8.0 km/h 88 % 0.0 mm
00:12 5.6 °C 3.8 °C 1021.2 hPa NNE 6.4 km/h 8.0 km/h 88 % 0.0 mm
00:17 5.6 °C 3.8 °C 1021.2 hPa ENE 3.2 km/h 8.0 km/h 88 % 0.0 mm
00:22 5.6 °C 3.8 °C 1021.2 hPa NE 6.4 km/h 8.0 km/h 88 % 0.0 mm
00:27 5.7 °C 3.7 °C 1021.2 hPa SE 3.2 km/h 8.0 km/h 87 % 0.0 mm
00:32 5.7 °C 3.7 °C 1021.2 hPa ENE 3.2 km/h 9.7 km/h 87 % 0.0 mm
00:37 5.7 °C 3.7 °C 1021.6 hPa NNE 4.8 km/h 9.7 km/h 87 % 0.0 mm
00:42 5.7 °C 3.7 °C 1021.2 hPa NNE 1.6 km/h 9.7 km/h 87 % 0.0 mm
00:47 5.6 °C 3.8 °C 1021.6 hPa NE 4.8 km/h 8.0 km/h 88 % 0.0 mm
00:52 5.6 °C 3.8 °C 1021.6 hPa SE 1.6 km/h 9.7 km/h 88 % 0.0 mm
01:02 5.6 °C 3.8 °C 1021.6 hPa ENE 8.0 km/h 9.7 km/h 88 % 0.0 mm
01:07 5.6 °C 3.8 °C 1021.6 hPa ESE 1.6 km/h 8.0 km/h 88 % 0.0 mm
01:12 5.6 °C 3.9 °C 1021.6 hPa NE 3.2 km/h 8.0 km/h 89 % 0.0 mm
01:17 5.6 °C 3.9 °C 1021.6 hPa ENE 4.8 km/h 8.0 km/h 89 % 0.0 mm
01:22 5.6 °C 3.9 °C 1021.6 hPa NE 6.4 km/h 8.0 km/h 89 % 0.0 mm
01:27 5.6 °C 3.9 °C 1021.6 hPa NE 3.2 km/h 8.0 km/h 89 % 0.0 mm
01:32 5.5 °C 3.8 °C 1021.6 hPa Calm   8.0 km/h 89 % 0.0 mm
01:37 5.4 °C 3.7 °C 1021.6 hPa Calm   8.0 km/h 89 % 0.0 mm
01:42 5.4 °C 3.7 °C 1021.6 hPa Calm   6.4 km/h 89 % 0.0 mm
01:47 5.4 °C 3.9 °C 1021.6 hPa ENE 3.2 km/h 6.4 km/h 90 % 0.0 mm
01:52 5.4 °C 3.9 °C 1021.6 hPa East 1.6 km/h 6.4 km/h 90 % 0.0 mm
01:57 5.4 °C 3.9 °C 1021.6 hPa Calm   6.4 km/h 90 % 0.0 mm
02:02 5.4 °C 3.9 °C 1021.6 hPa Calm   6.4 km/h 90 % 0.0 mm
02:12 5.4 °C 3.9 °C 1021.6 hPa Calm   6.4 km/h 90 % 0.0 mm
02:17 5.4 °C 3.9 °C 1021.6 hPa Calm   1.6 km/h 90 % 0.0 mm
02:22 5.3 °C 3.8 °C 1021.6 hPa NNE 4.8 km/h 4.8 km/h 90 % 0.0 mm
02:32 5.3 °C 3.8 °C 1021.6 hPa Calm   8.0 km/h 90 % 0.0 mm
02:37 5.3 °C 4.0 °C 1021.6 hPa NE 1.6 km/h 8.0 km/h 91 % 0.0 mm
02:42 5.3 °C 4.0 °C 1021.6 hPa Calm   3.2 km/h 91 % 0.0 mm
02:47 5.2 °C 3.9 °C 1021.6 hPa Calm   3.2 km/h 91 % 0.0 mm
02:52 5.2 °C 3.9 °C 1021.6 hPa Calm   3.2 km/h 91 % 0.0 mm
03:02 5.2 °C 3.9 °C 1021.6 hPa Calm   1.6 km/h 91 % 0.0 mm
03:07 5.2 °C 3.9 °C 1021.6 hPa Calm   1.6 km/h 91 % 0.0 mm
03:12 5.2 °C 3.9 °C 1021.6 hPa Calm   3.2 km/h 91 % 0.0 mm
03:17 5.2 °C 3.9 °C 1021.6 hPa Calm   3.2 km/h 91 % 0.0 mm
03:22 5.2 °C 4.0 °C 1021.6 hPa Calm   3.2 km/h 92 % 0.0 mm
03:32 5.1 °C 3.9 °C 1021.6 hPa Calm   3.2 km/h 92 % 0.0 mm
03:37 5.2 °C 4.0 °C 1021.6 hPa ENE 1.6 km/h 4.8 km/h 92 % 0.0 mm
03:42 5.2 °C 4.0 °C 1021.6 hPa ENE 1.6 km/h 4.8 km/h 92 % 0.0 mm
03:52 5.2 °C 4.0 °C 1021.6 hPa NE 3.2 km/h 4.8 km/h 92 % 0.0 mm
03:57 5.2 °C 4.0 °C 1021.6 hPa Calm   4.8 km/h 92 % 0.0 mm
04:02 5.2 °C 4.0 °C 1021.6 hPa Calm   3.2 km/h 92 % 0.0 mm
04:07 5.2 °C 4.0 °C 1021.6 hPa Calm   3.2 km/h 92 % 0.0 mm
04:12 5.2 °C 4.0 °C 1021.6 hPa Calm   3.2 km/h 92 % 0.0 mm
04:17 5.2 °C 4.0 °C 1021.6 hPa ENE 1.6 km/h 4.8 km/h 92 % 0.0 mm
04:22 5.2 °C 4.0 °C 1021.6 hPa Calm   4.8 km/h 92 % 0.0 mm
04:27 5.2 °C 4.0 °C 1021.6 hPa NE 3.2 km/h 4.8 km/h 92 % 0.0 mm
04:32 5.2 °C 4.0 °C 1021.6 hPa East 1.6 km/h 8.0 km/h 92 % 0.0 mm
04:37 5.2 °C 4.0 °C 1021.6 hPa NE 3.2 km/h 8.0 km/h 92 % 0.0 mm
04:42 5.2 °C 4.0 °C 1021.6 hPa Calm   8.0 km/h 92 % 0.0 mm
04:47 5.2 °C 4.0 °C 1021.6 hPa NE 8.0 km/h 8.0 km/h 92 % 0.0 mm
04:52 5.2 °C 4.0 °C 1021.6 hPa SE 3.2 km/h 8.0 km/h 92 % 0.0 mm
04:57 5.2 °C 4.0 °C 1021.6 hPa NE 3.2 km/h 8.0 km/h 92 % 0.0 mm
05:02 5.2 °C 4.0 °C 1021.6 hPa East 1.6 km/h 8.0 km/h 92 % 0.0 mm
05:07 5.2 °C 4.0 °C 1021.6 hPa ENE 9.7 km/h 9.7 km/h 92 % 0.0 mm
05:12 5.2 °C 4.0 °C 1021.6 hPa SE 1.6 km/h 9.7 km/h 92 % 0.0 mm
05:17 5.2 °C 4.0 °C 1021.6 hPa NE 4.8 km/h 9.7 km/h 92 % 0.0 mm
05:22 5.1 °C 3.9 °C 1021.6 hPa Calm   9.7 km/h 92 % 0.0 mm
05:27 5.1 °C 3.9 °C 1021.6 hPa East 1.6 km/h 8.0 km/h 92 % 0.0 mm
05:32 5.1 °C 3.9 °C 1021.9 hPa SE 1.6 km/h 8.0 km/h 92 % 0.0 mm
05:37 5.1 °C 3.9 °C 1021.6 hPa ESE 3.2 km/h 9.7 km/h 92 % 0.0 mm
05:42 5.1 °C 3.9 °C 1021.6 hPa ENE 1.6 km/h 9.7 km/h 92 % 0.0 mm
05:47 5.1 °C 3.9 °C 1021.9 hPa NNE 6.4 km/h 9.7 km/h 92 % 0.0 mm
05:57 5.0 °C 3.8 °C 1021.9 hPa East 3.2 km/h 8.0 km/h 92 % 0.0 mm
06:02 5.0 °C 3.7 °C 1021.9 hPa NNE 4.8 km/h 8.0 km/h 91 % 0.0 mm
06:12 4.9 °C 3.6 °C 1021.9 hPa NE 6.4 km/h 9.7 km/h 91 % 0.0 mm
06:17 4.9 °C 3.6 °C 1021.9 hPa NE 6.4 km/h 9.7 km/h 91 % 0.0 mm
06:22 4.9 °C 3.6 °C 1021.9 hPa Calm   9.7 km/h 91 % 0.0 mm
06:27 4.9 °C 3.6 °C 1021.9 hPa Calm   11.3 km/h 91 % 0.0 mm
06:32 4.8 °C 3.5 °C 1022.2 hPa Calm   11.3 km/h 91 % 0.0 mm
06:37 4.8 °C 3.5 °C 1022.2 hPa ESE 1.6 km/h 11.3 km/h 91 % 0.0 mm
06:42 4.8 °C 3.5 °C 1022.2 hPa NE 4.8 km/h 8.0 km/h 91 % 0.0 mm
06:47 4.8 °C 3.3 °C 1022.2 hPa NNE 6.4 km/h 8.0 km/h 90 % 0.0 mm
06:52 4.8 °C 3.1 °C 1022.2 hPa Calm   9.7 km/h 89 % 0.0 mm
06:57 4.8 °C 3.1 °C 1022.2 hPa NNE 3.2 km/h 9.7 km/h 89 % 0.0 mm
07:02 4.7 °C 3.0 °C 1022.6 hPa East 1.6 km/h 9.7 km/h 89 % 0.0 mm
07:12 4.3 °C 2.6 °C 1022.6 hPa Calm   4.8 km/h 89 % 0.0 mm
07:17 4.3 °C 2.6 °C 1022.6 hPa Calm   4.8 km/h 89 % 0.0 mm
07:22 4.2 °C 2.5 °C 1022.6 hPa NE 1.6 km/h 4.8 km/h 89 % 0.0 mm
07:32 4.2 °C 2.5 °C 1022.9 hPa NE 1.6 km/h 4.8 km/h 89 % 0.0 mm
07:37 4.3 °C 2.5 °C 1022.9 hPa Calm   4.8 km/h 88 % 0.0 mm
07:42 4.3 °C 2.3 °C 1022.9 hPa Calm   4.8 km/h 87 % 0.0 mm
07:47 4.4 °C 2.3 °C 1022.6 hPa ENE 4.8 km/h 4.8 km/h 86 % 0.0 mm
07:52 4.3 °C 2.2 °C 1022.6 hPa ENE 1.6 km/h 6.4 km/h 86 % 0.0 mm
07:57 4.3 °C 2.2 °C 1022.9 hPa East 1.6 km/h 8.0 km/h 86 % 0.0 mm
08:02 4.3 °C 2.2 °C 1022.9 hPa East 3.2 km/h 8.0 km/h 86 % 0.0 mm
08:07 4.4 °C 2.1 °C 1022.9 hPa ENE 1.6 km/h 8.0 km/h 85 % 0.0 mm
08:12 4.5 °C 2.2 °C 1022.9 hPa NE 4.8 km/h 8.0 km/h 85 % 0.0 mm
08:17 4.6 °C 2.1 °C 1022.9 hPa ENE 4.8 km/h 9.7 km/h 84 % 0.0 mm
08:22 4.7 °C 2.2 °C 1022.9 hPa ENE 1.6 km/h 9.7 km/h 84 % 0.0 mm
08:27 4.9 °C 2.3 °C 1022.9 hPa East 1.6 km/h 9.7 km/h 83 % 0.0 mm
08:32 5.2 °C 2.4 °C 1022.9 hPa NE 3.2 km/h 9.7 km/h 82 % 0.0 mm
08:37 5.5 °C 2.5 °C 1022.9 hPa ENE 3.2 km/h 9.7 km/h 81 % 0.0 mm
08:42 5.8 °C 2.6 °C 1022.9 hPa NE 4.8 km/h 9.7 km/h 80 % 0.0 mm
08:47 6.1 °C 2.7 °C 1023.2 hPa ENE 1.6 km/h 9.7 km/h 79 % 0.0 mm
08:52 6.1 °C 2.6 °C 1023.2 hPa Calm   11.3 km/h 78 % 0.0 mm
08:57 5.9 °C 2.2 °C 1023.2 hPa SE 1.6 km/h 11.3 km/h 77 % 0.0 mm
09:02 5.8 °C 1.9 °C 1023.2 hPa NNE 3.2 km/h 12.9 km/h 76 % 0.0 mm
09:07 5.9 °C 2.4 °C 1023.2 hPa East 1.6 km/h 12.9 km/h 78 % 0.0 mm
09:12 6.0 °C 2.5 °C 1023.2 hPa NE 1.6 km/h 12.9 km/h 78 % 0.0 mm
09:17 6.1 °C 2.4 °C 1023.2 hPa East 1.6 km/h 11.3 km/h 77 % 0.0 mm
09:22 6.1 °C 2.4 °C 1023.2 hPa ENE 4.8 km/h 11.3 km/h 77 % 0.0 mm
09:32 6.3 °C 2.0 °C 1023.2 hPa NNE 3.2 km/h 12.9 km/h 74 % 0.0 mm
09:37 6.3 °C 2.0 °C 1023.2 hPa ENE 3.2 km/h 17.7 km/h 74 % 0.0 mm
09:42 6.3 °C 2.2 °C 1023.2 hPa Calm   17.7 km/h 75 % 0.0 mm
09:47 6.4 °C 2.3 °C 1023.6 hPa ENE 1.6 km/h 17.7 km/h 75 % 0.0 mm
09:52 6.5 °C 1.8 °C 1023.6 hPa ENE 3.2 km/h 9.7 km/h 72 % 0.0 mm
09:57 6.6 °C 1.9 °C 1023.6 hPa NNE 6.4 km/h 14.5 km/h 72 % 0.0 mm
10:02 6.7 °C 2.2 °C 1023.6 hPa ENE 3.2 km/h 14.5 km/h 73 % 0.0 mm
10:07 6.7 °C 2.4 °C 1023.6 hPa Calm   14.5 km/h 74 % 0.0 mm
10:12 6.8 °C 2.1 °C 1023.2 hPa NE 4.8 km/h 16.1 km/h 72 % 0.0 mm
10:17 6.9 °C 2.0 °C 1023.2 hPa Calm   16.1 km/h 71 % 0.0 mm
10:22 7.0 °C 1.9 °C 1023.2 hPa NE 3.2 km/h 16.1 km/h 70 % 0.0 mm
10:27 7.1 °C 2.4 °C 1023.2 hPa SSE 3.2 km/h 11.3 km/h 72 % 0.0 mm
10:32 7.2 °C 1.7 °C 1023.6 hPa NE 6.4 km/h 11.3 km/h 68 % 0.0 mm
10:37 7.4 °C 2.5 °C 1023.6 hPa NNE 8.0 km/h 9.7 km/h 71 % 0.0 mm
10:42 7.4 °C 2.3 °C 1023.6 hPa NE 12.9 km/h 14.5 km/h 70 % 0.0 mm
10:47 7.3 °C 2.0 °C 1023.6 hPa SE 1.6 km/h 14.5 km/h 69 % 0.0 mm
10:52 7.2 °C 1.5 °C 1023.6 hPa NNE 11.3 km/h 12.9 km/h 67 % 0.0 mm
10:57 7.4 °C 2.1 °C 1023.6 hPa NE 1.6 km/h 14.5 km/h 69 % 0.0 mm
11:02 8.0 °C 2.5 °C 1023.6 hPa Calm   14.5 km/h 68 % 0.0 mm
11:07 8.5 °C 2.5 °C 1023.6 hPa East 8.0 km/h 14.5 km/h 66 % 0.0 mm
11:12 8.5 °C 1.9 °C 1023.6 hPa Calm   14.5 km/h 63 % 0.0 mm
11:17 8.6 °C 1.5 °C 1023.6 hPa ENE 3.2 km/h 14.5 km/h 61 % 0.0 mm
11:22 8.7 °C 2.0 °C 1023.6 hPa NNE 1.6 km/h 14.5 km/h 63 % 0.0 mm
11:27 8.9 °C 2.2 °C 1023.6 hPa NNE 4.8 km/h 12.9 km/h 63 % 0.0 mm
11:32 8.9 °C 1.8 °C 1023.2 hPa ESE 1.6 km/h 17.7 km/h 61 % 0.0 mm
11:37 8.9 °C 1.8 °C 1023.2 hPa SSE 3.2 km/h 17.7 km/h 61 % 0.0 mm
11:42 9.0 °C 2.3 °C 1023.6 hPa Calm   17.7 km/h 63 % 0.0 mm
11:47 9.2 °C 2.3 °C 1023.6 hPa NE 14.5 km/h 16.1 km/h 62 % 0.0 mm
11:52 9.1 °C 1.7 °C 1023.6 hPa NNE 6.4 km/h 16.1 km/h 60 % 0.0 mm
11:57 9.1 °C 2.4 °C 1023.6 hPa ENE 11.3 km/h 17.7 km/h 63 % 0.0 mm
12:02 9.2 °C 1.8 °C 1023.6 hPa South 1.6 km/h 17.7 km/h 60 % 0.0 mm
12:07 9.3 °C 2.2 °C 1023.6 hPa NNE 8.0 km/h 17.7 km/h 61 % 0.0 mm
12:12 9.5 °C 2.1 °C 1023.6 hPa ENE 1.6 km/h 16.1 km/h 60 % 0.0 mm
12:17 9.7 °C 2.8 °C 1023.6 hPa Calm   16.1 km/h 62 % 0.0 mm
12:22 9.8 °C 2.2 °C 1023.6 hPa NNE 6.4 km/h 12.9 km/h 59 % 0.0 mm
12:27 9.9 °C 2.0 °C 1023.2 hPa ENE 4.8 km/h 12.9 km/h 58 % 0.0 mm
12:32 9.9 °C 2.7 °C 1023.2 hPa ESE 6.4 km/h 12.9 km/h 61 % 0.0 mm
12:37 10.0 °C 2.6 °C 1023.2 hPa ESE 1.6 km/h 14.5 km/h 60 % 0.0 mm
12:42 10.1 °C 2.4 °C 1023.2 hPa ENE 3.2 km/h 17.7 km/h 59 % 0.0 mm
12:47 10.2 °C 2.8 °C 1023.2 hPa SE 1.6 km/h 17.7 km/h 60 % 0.0 mm
12:57 10.4 °C 2.7 °C 1023.2 hPa NE 9.7 km/h 12.9 km/h 59 % 0.0 mm
13:02 9.7 °C 2.8 °C 1023.2 hPa East 8.0 km/h 16.1 km/h 62 % 0.0 mm
13:07 9.8 °C 3.1 °C 1023.2 hPa ENE 4.8 km/h 16.1 km/h 63 % 0.0 mm
13:12 10.1 °C 3.1 °C 1023.2 hPa NE 9.7 km/h 19.3 km/h 62 % 0.0 mm
13:17 10.2 °C 3.2 °C 1023.2 hPa NE 14.5 km/h 19.3 km/h 62 % 0.0 mm
13:22 10.2 °C 3.0 °C 1023.2 hPa SE 4.8 km/h 19.3 km/h 61 % 0.0 mm
13:27 10.4 °C 3.2 °C 1023.2 hPa ENE 4.8 km/h 19.3 km/h 61 % 0.0 mm
13:32 10.5 °C 3.1 °C 1022.9 hPa ENE 3.2 km/h 20.9 km/h 60 % 0.0 mm
13:37 10.4 °C 3.0 °C 1022.9 hPa East 6.4 km/h 20.9 km/h 60 % 0.0 mm
13:42 10.5 °C 3.1 °C 1022.9 hPa NNE 8.0 km/h 20.9 km/h 60 % 0.0 mm
13:47 10.4 °C 3.0 °C 1022.9 hPa NE 11.3 km/h 20.9 km/h 60 % 0.0 mm
13:52 10.5 °C 3.3 °C 1022.9 hPa NE 11.3 km/h 17.7 km/h 61 % 0.0 mm
13:57 10.4 °C 3.0 °C 1022.9 hPa ENE 12.9 km/h 20.9 km/h 60 % 0.0 mm
14:02 10.4 °C 3.0 °C 1022.9 hPa NE 12.9 km/h 20.9 km/h 60 % 0.0 mm
14:07 10.6 °C 2.9 °C 1022.9 hPa SSE 6.4 km/h 20.9 km/h 59 % 0.0 mm
14:12 10.6 °C 2.7 °C 1022.6 hPa ENE 3.2 km/h 17.7 km/h 58 % 0.0 mm
14:17 10.7 °C 3.5 °C 1022.6 hPa NE 3.2 km/h 17.7 km/h 61 % 0.0 mm
14:22 10.6 °C 2.9 °C 1022.9 hPa NE 8.0 km/h 17.7 km/h 59 % 0.0 mm
14:27 10.4 °C 3.0 °C 1022.9 hPa ENE 12.9 km/h 17.7 km/h 60 % 0.0 mm
14:32 10.5 °C 3.5 °C 1022.9 hPa NNE 9.7 km/h 19.3 km/h 62 % 0.0 mm
14:37 10.7 °C 3.7 °C 1022.6 hPa East 9.7 km/h 19.3 km/h 62 % 0.0 mm
14:42 10.6 °C 4.3 °C 1022.6 hPa SE 4.8 km/h 24.1 km/h 65 % 0.0 mm
14:47 10.6 °C 4.1 °C 1022.6 hPa NE 9.7 km/h 24.1 km/h 64 % 0.0 mm
14:52 10.6 °C 2.9 °C 1022.9 hPa East 4.8 km/h 22.5 km/h 59 % 0.0 mm
14:57 10.6 °C 3.8 °C 1022.9 hPa East 8.0 km/h 22.5 km/h 63 % 0.0 mm
15:02 10.1 °C 3.1 °C 1022.9 hPa East 8.0 km/h 22.5 km/h 62 % 0.0 mm
15:07 10.2 °C 2.8 °C 1022.6 hPa ENE 6.4 km/h 16.1 km/h 60 % 0.0 mm
15:12 10.3 °C 3.3 °C 1022.6 hPa ENE 8.0 km/h 17.7 km/h 62 % 0.0 mm
15:17 10.5 °C 3.3 °C 1022.6 hPa South 4.8 km/h 17.7 km/h 61 % 0.0 mm
15:22 9.8 °C 2.6 °C 1022.6 hPa SSW 3.2 km/h 17.7 km/h 61 % 0.0 mm
15:27 10.0 °C 3.3 °C 1022.6 hPa ESE 4.8 km/h 17.7 km/h 63 % 0.0 mm
15:32 10.3 °C 3.3 °C 1022.6 hPa ENE 8.0 km/h 17.7 km/h 62 % 0.0 mm
15:37 10.2 °C 3.2 °C 1022.6 hPa East 9.7 km/h 20.9 km/h 62 % 0.0 mm
15:42 9.5 °C 2.8 °C 1022.6 hPa East 11.3 km/h 20.9 km/h 63 % 0.0 mm
15:47 9.3 °C 3.5 °C 1022.6 hPa SE 4.8 km/h 19.3 km/h 67 % 0.0 mm
15:52 9.6 °C 3.1 °C 1022.6 hPa NE 8.0 km/h 14.5 km/h 64 % 0.0 mm
15:57 9.9 °C 3.4 °C 1022.9 hPa NNE 9.7 km/h 22.5 km/h 64 % 0.0 mm
16:02 10.1 °C 3.4 °C 1022.9 hPa ENE 9.7 km/h 22.5 km/h 63 % 0.0 mm
16:07 10.0 °C 3.1 °C 1022.6 hPa NE 12.9 km/h 22.5 km/h 62 % 0.0 mm
16:12 9.9 °C 3.4 °C 1022.6 hPa NE 4.8 km/h 17.7 km/h 64 % 0.0 mm
16:17 10.0 °C 3.5 °C 1022.6 hPa ENE 4.8 km/h 17.7 km/h 64 % 0.0 mm
16:22 9.9 °C 3.0 °C 1022.6 hPa ENE 9.7 km/h 17.7 km/h 62 % 0.0 mm
16:27 9.8 °C 2.9 °C 1022.6 hPa ENE 4.8 km/h 17.7 km/h 62 % 0.0 mm
16:32 9.7 °C 3.2 °C 1022.6 hPa NE 9.7 km/h 17.7 km/h 64 % 0.0 mm
16:37 9.8 °C 2.9 °C 1022.9 hPa ENE 8.0 km/h 17.7 km/h 62 % 0.0 mm
16:42 9.7 °C 3.0 °C 1022.6 hPa NE 3.2 km/h 19.3 km/h 63 % 0.0 mm
16:47 9.6 °C 2.9 °C 1022.6 hPa NE 6.4 km/h 19.3 km/h 63 % 0.0 mm
16:52 9.6 °C 3.1 °C 1022.6 hPa NNE 4.8 km/h 19.3 km/h 64 % 0.0 mm
16:57 9.4 °C 2.9 °C 1022.6 hPa NE 9.7 km/h 17.7 km/h 64 % 0.0 mm
17:07 9.3 °C 3.1 °C 1022.9 hPa East 1.6 km/h 14.5 km/h 65 % 0.0 mm
17:12 9.2 °C 2.5 °C 1022.9 hPa ENE 8.0 km/h 14.5 km/h 63 % 0.0 mm
17:17 9.1 °C 2.4 °C 1022.6 hPa ENE 3.2 km/h 14.5 km/h 63 % 0.0 mm
17:22 9.0 °C 2.6 °C 1022.9 hPa ENE 3.2 km/h 14.5 km/h 64 % 0.0 mm
17:27 8.9 °C 2.7 °C 1022.6 hPa ENE 4.8 km/h 14.5 km/h 65 % 0.0 mm
17:32 8.8 °C 2.6 °C 1022.6 hPa East 8.0 km/h 16.1 km/h 65 % 0.0 mm
17:42 8.6 °C 2.6 °C 1022.9 hPa SE 1.6 km/h 16.1 km/h 66 % 0.0 mm
17:47 8.5 °C 2.5 °C 1022.9 hPa ENE 3.2 km/h 16.1 km/h 66 % 0.0 mm
17:52 8.4 °C 2.4 °C 1022.9 hPa SSE 4.8 km/h 14.5 km/h 66 % 0.0 mm
17:57 8.2 °C 2.2 °C 1022.9 hPa SE 3.2 km/h 14.5 km/h 66 % 0.0 mm
18:02 8.1 °C 2.3 °C 1022.9 hPa ENE 4.8 km/h 14.5 km/h 67 % 0.0 mm
18:07 7.9 °C 2.6 °C 1022.9 hPa East 4.8 km/h 14.5 km/h 69 % 0.0 mm
18:12 7.8 °C 2.5 °C 1022.9 hPa East 3.2 km/h 12.9 km/h 69 % 0.0 mm
18:17 7.8 °C 2.5 °C 1022.9 hPa East 8.0 km/h 11.3 km/h 69 % 0.0 mm
18:22 7.8 °C 2.5 °C 1023.2 hPa SE 3.2 km/h 11.3 km/h 69 % 0.0 mm
18:27 7.8 °C 2.5 °C 1023.2 hPa NNE 1.6 km/h 16.1 km/h 69 % 0.0 mm
18:32 7.6 °C 2.1 °C 1023.2 hPa ESE 3.2 km/h 16.1 km/h 68 % 0.0 mm
18:37 7.6 °C 2.1 °C 1023.2 hPa ESE 1.6 km/h 16.1 km/h 68 % 0.0 mm
18:42 7.4 °C 1.9 °C 1023.2 hPa NE 3.2 km/h 12.9 km/h 68 % 0.0 mm
18:52 7.1 °C 1.6 °C 1023.2 hPa East 1.6 km/h 9.7 km/h 68 % 0.0 mm
18:57 6.9 °C 1.6 °C 1023.6 hPa NE 1.6 km/h 9.7 km/h 69 % 0.0 mm
19:02 6.6 °C 1.9 °C 1023.6 hPa Calm   8.0 km/h 72 % 0.0 mm
19:07 5.9 °C 2.0 °C 1023.6 hPa Calm   8.0 km/h 76 % 0.0 mm
19:12 5.6 °C 2.1 °C 1023.6 hPa Calm   3.2 km/h 78 % 0.0 mm
19:17 5.7 °C 2.0 °C 1023.6 hPa Calm   3.2 km/h 77 % 0.0 mm
19:22 5.8 °C 1.9 °C 1023.9 hPa Calm   3.2 km/h 76 % 0.0 mm
19:27 5.9 °C 2.2 °C 1023.9 hPa Calm   6.4 km/h 77 % 0.0 mm
19:32 5.8 °C 2.3 °C 1023.9 hPa Calm   6.4 km/h 78 % 0.0 mm
19:37 5.7 °C 2.2 °C 1023.9 hPa Calm   6.4 km/h 78 % 0.0 mm
19:42 5.9 °C 1.8 °C 1024.3 hPa Calm   3.2 km/h 75 % 0.0 mm
19:49 6.0 °C 2.3 °C 1024.3 hPa Calm   3.2 km/h 77 % 0.0 mm
19:57 5.8 °C 2.3 °C 1024.3 hPa Calm   3.2 km/h 78 % 0.0 mm
20:02 5.7 °C 2.2 °C 1024.3 hPa Calm   1.6 km/h 78 % 0.0 mm
20:07 5.7 °C 2.0 °C 1024.3 hPa Calm   1.6 km/h 77 % 0.0 mm
20:12 5.7 °C 2.0 °C 1024.3 hPa Calm   1.6 km/h 77 % 0.0 mm
20:17 5.8 °C 2.1 °C 1024.6 hPa NNE 1.6 km/h 1.6 km/h 77 % 0.0 mm
20:22 6.0 °C 1.9 °C 1024.6 hPa Calm   3.2 km/h 75 % 0.0 mm
20:27 6.1 °C 2.0 °C 1024.6 hPa Calm   3.2 km/h 75 % 0.0 mm
20:32 6.0 °C 2.3 °C 1024.6 hPa Calm   3.2 km/h 77 % 0.0 mm
20:37 6.1 °C 1.6 °C 1024.6 hPa NE 1.6 km/h 4.8 km/h 73 % 0.0 mm
20:47 6.3 °C 2.0 °C 1024.6 hPa Calm   4.8 km/h 74 % 0.0 mm
20:52 6.3 °C 1.6 °C 1024.6 hPa ENE 1.6 km/h 6.4 km/h 72 % 0.0 mm
20:57 6.4 °C 1.7 °C 1024.6 hPa Calm   6.4 km/h 72 % 0.0 mm
21:02 6.6 °C 1.5 °C 1024.6 hPa Calm   6.4 km/h 70 % 0.0 mm
21:07 6.7 °C 1.6 °C 1024.6 hPa Calm   12.9 km/h 70 % 0.0 mm
21:12 6.7 °C 1.6 °C 1024.6 hPa ENE 1.6 km/h 12.9 km/h 70 % 0.0 mm
21:17 6.7 °C 1.4 °C 1024.6 hPa Calm   6.4 km/h 69 % 0.0 mm
21:22 6.7 °C 1.8 °C 1024.6 hPa Calm   9.7 km/h 71 % 0.0 mm
21:27 6.6 °C 1.9 °C 1024.6 hPa NE 1.6 km/h 9.7 km/h 72 % 0.0 mm
21:37 6.2 °C 1.9 °C 1024.6 hPa ENE 1.6 km/h 8.0 km/h 74 % 0.0 mm
21:42 6.2 °C 1.9 °C 1024.6 hPa Calm   4.8 km/h 74 % 0.0 mm
21:47 6.1 °C 2.0 °C 1024.6 hPa Calm   6.4 km/h 75 % 0.0 mm
21:52 6.1 °C 2.2 °C 1024.6 hPa NE 1.6 km/h 6.4 km/h 76 % 0.0 mm
21:57 6.1 °C 1.8 °C 1024.6 hPa Calm   6.4 km/h 74 % 0.0 mm
22:02 6.2 °C 1.9 °C 1024.6 hPa East 1.6 km/h 6.4 km/h 74 % 0.0 mm
22:07 6.1 °C 2.0 °C 1024.6 hPa Calm   6.4 km/h 75 % 0.0 mm
22:12 6.1 °C 2.0 °C 1024.6 hPa Calm   6.4 km/h 75 % 0.0 mm
22:17 6.1 °C 1.8 °C 1024.9 hPa Calm   4.8 km/h 74 % 0.0 mm
22:22 6.2 °C 1.7 °C 1024.6 hPa Calm   6.4 km/h 73 % 0.0 mm
22:27 6.2 °C 1.9 °C 1024.6 hPa Calm   6.4 km/h 74 % 0.0 mm
22:32 6.2 °C 2.1 °C 1024.6 hPa Calm   8.0 km/h 75 % 0.0 mm
22:37 6.2 °C 1.9 °C 1024.6 hPa SSE 1.6 km/h 8.0 km/h 74 % 0.0 mm
22:42 6.1 °C 2.0 °C 1024.6 hPa Calm   8.0 km/h 75 % 0.0 mm
22:47 6.1 °C 1.6 °C 1024.6 hPa Calm   6.4 km/h 73 % 0.0 mm
22:52 6.0 °C 1.9 °C 1024.6 hPa Calm   9.7 km/h 75 % 0.0 mm
22:57 5.8 °C 1.9 °C 1024.6 hPa Calm   9.7 km/h 76 % 0.0 mm
23:02 5.4 °C 1.7 °C 1024.6 hPa Calm   9.7 km/h 77 % 0.0 mm
23:07 5.2 °C 1.7 °C 1024.6 hPa NE 1.6 km/h 4.8 km/h 78 % 0.0 mm
23:12 4.8 °C 1.5 °C 1024.6 hPa Calm   4.8 km/h 79 % 0.0 mm
23:17 4.5 °C 1.4 °C 1024.6 hPa East 1.6 km/h 3.2 km/h 80 % 0.0 mm
23:22 4.5 °C 1.4 °C 1024.6 hPa Calm   3.2 km/h 80 % 0.0 mm
23:27 4.4 °C 1.3 °C 1024.6 hPa Calm   3.2 km/h 80 % 0.0 mm
23:32 4.3 °C 1.3 °C 1024.6 hPa ENE 1.6 km/h 8.0 km/h 81 % 0.0 mm
23:37 4.2 °C 1.2 °C 1024.6 hPa Calm   8.0 km/h 81 % 0.0 mm
23:42 4.2 °C 1.2 °C 1024.6 hPa ENE 1.6 km/h 8.0 km/h 81 % 0.0 mm
23:47 4.2 °C 1.2 °C 1024.6 hPa NE 3.2 km/h 4.8 km/h 81 % 0.0 mm
23:52 4.1 °C 1.3 °C 1024.6 hPa SE 1.6 km/h 8.0 km/h 82 % 0.0 mm
23:57 4.1 °C 1.3 °C 1024.6 hPa ENE 1.6 km/h 8.0 km/h 82 % 0.0 mm
Meteo18
Compliments of Weather Underground - 4 mb

Script developed by  Jim McMurry - jmcmurry@mwt.net Adapted for the template by  Wim van der Kuil - Leuven-Template.eu

You find our weather info also at:

European Weather Network

Weather Underground

Equipment we use:

Weather-station
Davis Vue

Weather-program
Meteohub

Weather-server
Raspberry PI 2 B+

Provider
1 and 1

Davis Vue

Meteohub

Raspberry PI 2 B+

1 and 1